sensor_id;sensor_type;location;lat;lon;timestamp;temperature;humidity
15638;DHT22;26604;53.596;10.042;2024-03-02T00:00:35;9.30;99.90
15638;DHT22;26604;53.596;10.042;2024-03-02T00:03:02;9.30;99.90
15638;DHT22;26604;53.596;10.042;2024-03-02T00:05:29;9.30;99.90
15638;DHT22;26604;53.596;10.042;2024-03-02T00:07:58;9.30;99.90
15638;DHT22;26604;53.596;10.042;2024-03-02T00:10:27;9.30;99.90
15638;DHT22;26604;53.596;10.042;2024-03-02T00:12:57;9.30;99.90
15638;DHT22;26604;53.596;10.042;2024-03-02T00:15:42;9.30;99.90
15638;DHT22;26604;53.596;10.042;2024-03-02T00:18:13;9.20;99.90
15638;DHT22;26604;53.596;10.042;2024-03-02T00:20:41;9.20;99.90
15638;DHT22;26604;53.596;10.042;2024-03-02T00:23:10;9.30;99.90
15638;DHT22;26604;53.596;10.042;2024-03-02T00:25:41;9.30;99.90
15638;DHT22;26604;53.596;10.042;2024-03-02T00:28:16;9.20;99.90
15638;DHT22;26604;53.596;10.042;2024-03-02T00:30:58;9.20;99.90
15638;DHT22;26604;53.596;10.042;2024-03-02T00:33:27;9.20;99.90
15638;DHT22;26604;53.596;10.042;2024-03-02T00:35:55;9.20;99.90
15638;DHT22;26604;53.596;10.042;2024-03-02T00:38:23;9.20;99.90
15638;DHT22;26604;53.596;10.042;2024-03-02T00:40:51;9.20;99.90
15638;DHT22;26604;53.596;10.042;2024-03-02T00:43:43;9.20;99.90
15638;DHT22;26604;53.596;10.042;2024-03-02T00:46:11;9.20;99.90
15638;DHT22;26604;53.596;10.042;2024-03-02T00:48:47;9.20;99.90
15638;DHT22;26604;53.596;10.042;2024-03-02T00:51:14;9.10;99.90
15638;DHT22;26604;53.596;10.042;2024-03-02T00:53:43;9.10;99.90
15638;DHT22;26604;53.596;10.042;2024-03-02T00:56:10;9.10;99.90
15638;DHT22;26604;53.596;10.042;2024-03-02T00:58:38;9.10;99.90
15638;DHT22;26604;53.596;10.042;2024-03-02T01:01:05;9.10;99.90
15638;DHT22;26604;53.596;10.042;2024-03-02T01:03:32;9.00;99.90
15638;DHT22;26604;53.596;10.042;2024-03-02T01:05:59;9.00;99.90
15638;DHT22;26604;53.596;10.042;2024-03-02T01:08:26;9.00;99.90
15638;DHT22;26604;53.596;10.042;2024-03-02T01:10:54;9.00;99.90
15638;DHT22;26604;53.596;10.042;2024-03-02T01:13:22;9.00;99.90
15638;DHT22;26604;53.596;10.042;2024-03-02T01:15:49;8.90;99.90
15638;DHT22;26604;53.596;10.042;2024-03-02T01:18:16;8.90;99.90
15638;DHT22;26604;53.596;10.042;2024-03-02T01:20:43;8.90;99.90
15638;DHT22;26604;53.596;10.042;2024-03-02T01:23:10;8.90;99.90
15638;DHT22;26604;53.596;10.042;2024-03-02T01:25:36;8.90;99.90
15638;DHT22;26604;53.596;10.042;2024-03-02T01:28:05;8.90;99.90
15638;DHT22;26604;53.596;10.042;2024-03-02T01:30:32;8.80;99.90
15638;DHT22;26604;53.596;10.042;2024-03-02T01:32:59;8.80;99.90
15638;DHT22;26604;53.596;10.042;2024-03-02T01:35:27;8.80;99.90
15638;DHT22;26604;53.596;10.042;2024-03-02T01:37:54;8.80;99.90
15638;DHT22;26604;53.596;10.042;2024-03-02T01:40:21;8.70;99.90
15638;DHT22;26604;53.596;10.042;2024-03-02T01:42:51;8.70;99.90
15638;DHT22;26604;53.596;10.042;2024-03-02T01:45:20;8.70;99.90
15638;DHT22;26604;53.596;10.042;2024-03-02T01:47:47;8.70;99.90
15638;DHT22;26604;53.596;10.042;2024-03-02T01:50:14;8.70;99.90
15638;DHT22;26604;53.596;10.042;2024-03-02T01:52:41;8.70;99.90
15638;DHT22;26604;53.596;10.042;2024-03-02T01:55:10;8.70;99.90
15638;DHT22;26604;53.596;10.042;2024-03-02T01:57:37;8.70;99.90
15638;DHT22;26604;53.596;10.042;2024-03-02T02:00:05;8.70;99.90
15638;DHT22;26604;53.596;10.042;2024-03-02T02:02:36;8.70;99.90
15638;DHT22;26604;53.596;10.042;2024-03-02T02:05:03;8.70;99.90
15638;DHT22;26604;53.596;10.042;2024-03-02T02:07:31;8.70;99.90
15638;DHT22;26604;53.596;10.042;2024-03-02T02:09:58;8.70;99.90
15638;DHT22;26604;53.596;10.042;2024-03-02T02:12:25;8.60;99.90
15638;DHT22;26604;53.596;10.042;2024-03-02T02:14:52;8.60;99.90
15638;DHT22;26604;53.596;10.042;2024-03-02T02:17:19;8.60;99.90
15638;DHT22;26604;53.596;10.042;2024-03-02T02:19:47;8.60;99.90
15638;DHT22;26604;53.596;10.042;2024-03-02T02:22:16;8.60;99.90
15638;DHT22;26604;53.596;10.042;2024-03-02T02:24:42;8.60;99.90
15638;DHT22;26604;53.596;10.042;2024-03-02T02:27:09;8.60;99.90
15638;DHT22;26604;53.596;10.042;2024-03-02T02:29:38;8.50;99.90
15638;DHT22;26604;53.596;10.042;2024-03-02T02:32:05;8.60;99.90
15638;DHT22;26604;53.596;10.042;2024-03-02T02:34:32;8.60;99.90
15638;DHT22;26604;53.596;10.042;2024-03-02T02:36:59;8.60;99.90
15638;DHT22;26604;53.596;10.042;2024-03-02T02:39:28;8.50;99.90
15638;DHT22;26604;53.596;10.042;2024-03-02T02:41:55;8.60;99.90
15638;DHT22;26604;53.596;10.042;2024-03-02T02:44:21;8.60;99.90
15638;DHT22;26604;53.596;10.042;2024-03-02T02:46:48;8.50;99.90
15638;DHT22;26604;53.596;10.042;2024-03-02T02:49:15;8.60;99.90
15638;DHT22;26604;53.596;10.042;2024-03-02T02:51:42;8.50;99.90
15638;DHT22;26604;53.596;10.042;2024-03-02T02:54:09;8.50;99.90
15638;DHT22;26604;53.596;10.042;2024-03-02T02:56:37;8.50;99.90
15638;DHT22;26604;53.596;10.042;2024-03-02T02:59:04;8.50;99.90
15638;DHT22;26604;53.596;10.042;2024-03-02T03:01:31;8.50;99.90
15638;DHT22;26604;53.596;10.042;2024-03-02T03:03:58;8.50;99.90
15638;DHT22;26604;53.596;10.042;2024-03-02T03:06:25;8.50;99.90
15638;DHT22;26604;53.596;10.042;2024-03-02T03:08:51;8.50;99.90
15638;DHT22;26604;53.596;10.042;2024-03-02T03:11:18;8.50;99.90
15638;DHT22;26604;53.596;10.042;2024-03-02T03:13:46;8.50;99.90
15638;DHT22;26604;53.596;10.042;2024-03-02T03:16:13;8.50;99.90
15638;DHT22;26604;53.596;10.042;2024-03-02T03:18:40;8.50;99.90
15638;DHT22;26604;53.596;10.042;2024-03-02T03:21:07;8.50;99.90
15638;DHT22;26604;53.596;10.042;2024-03-02T03:23:34;8.50;99.90
15638;DHT22;26604;53.596;10.042;2024-03-02T03:26:01;8.40;99.90
15638;DHT22;26604;53.596;10.042;2024-03-02T03:28:28;8.40;99.90
15638;DHT22;26604;53.596;10.042;2024-03-02T03:30:56;8.40;99.90
15638;DHT22;26604;53.596;10.042;2024-03-02T03:33:23;8.40;99.90
15638;DHT22;26604;53.596;10.042;2024-03-02T03:35:50;8.50;99.90
15638;DHT22;26604;53.596;10.042;2024-03-02T03:38:18;8.40;99.90
15638;DHT22;26604;53.596;10.042;2024-03-02T03:40:45;8.50;99.90
15638;DHT22;26604;53.596;10.042;2024-03-02T03:43:13;8.50;99.90
15638;DHT22;26604;53.596;10.042;2024-03-02T03:45:39;8.50;99.90
15638;DHT22;26604;53.596;10.042;2024-03-02T03:48:08;8.50;99.90
15638;DHT22;26604;53.596;10.042;2024-03-02T03:50:35;8.40;99.90
15638;DHT22;26604;53.596;10.042;2024-03-02T03:53:03;8.40;99.90
15638;DHT22;26604;53.596;10.042;2024-03-02T03:55:29;8.40;99.90
15638;DHT22;26604;53.596;10.042;2024-03-02T03:57:56;8.40;99.90
15638;DHT22;26604;53.596;10.042;2024-03-02T04:00:23;8.40;99.90
15638;DHT22;26604;53.596;10.042;2024-03-02T04:02:50;8.40;99.90
15638;DHT22;26604;53.596;10.042;2024-03-02T04:05:18;8.50;99.90
15638;DHT22;26604;53.596;10.042;2024-03-02T04:07:45;8.40;99.90
15638;DHT22;26604;53.596;10.042;2024-03-02T04:10:12;8.40;99.90
15638;DHT22;26604;53.596;10.042;2024-03-02T04:12:39;8.40;99.90
15638;DHT22;26604;53.596;10.042;2024-03-02T04:15:06;8.40;99.90
15638;DHT22;26604;53.596;10.042;2024-03-02T04:17:34;8.40;99.90
15638;DHT22;26604;53.596;10.042;2024-03-02T04:20:01;8.40;99.90
15638;DHT22;26604;53.596;10.042;2024-03-02T04:22:33;8.40;99.90
15638;DHT22;26604;53.596;10.042;2024-03-02T04:25:01;8.30;99.90
15638;DHT22;26604;53.596;10.042;2024-03-02T04:27:30;8.30;99.90
15638;DHT22;26604;53.596;10.042;2024-03-02T04:29:57;8.40;99.90
15638;DHT22;26604;53.596;10.042;2024-03-02T04:32:25;8.40;99.90
15638;DHT22;26604;53.596;10.042;2024-03-02T04:34:52;8.40;99.90
15638;DHT22;26604;53.596;10.042;2024-03-02T04:37:19;8.40;99.90
15638;DHT22;26604;53.596;10.042;2024-03-02T04:39:47;8.40;99.90
15638;DHT22;26604;53.596;10.042;2024-03-02T04:42:14;8.40;99.90
15638;DHT22;26604;53.596;10.042;2024-03-02T04:44:41;8.40;99.90
15638;DHT22;26604;53.596;10.042;2024-03-02T04:47:08;8.40;99.90
15638;DHT22;26604;53.596;10.042;2024-03-02T04:49:35;8.30;99.90
15638;DHT22;26604;53.596;10.042;2024-03-02T04:52:02;8.30;99.90
15638;DHT22;26604;53.596;10.042;2024-03-02T04:54:29;8.30;99.90
15638;DHT22;26604;53.596;10.042;2024-03-02T04:56:57;8.30;99.90
15638;DHT22;26604;53.596;10.042;2024-03-02T04:59:24;8.20;99.90
15638;DHT22;26604;53.596;10.042;2024-03-02T05:01:50;8.20;99.90
15638;DHT22;26604;53.596;10.042;2024-03-02T05:04:17;8.20;99.90
15638;DHT22;26604;53.596;10.042;2024-03-02T05:06:44;8.20;99.90
15638;DHT22;26604;53.596;10.042;2024-03-02T05:09:17;8.20;99.90
15638;DHT22;26604;53.596;10.042;2024-03-02T05:11:44;8.20;99.90
15638;DHT22;26604;53.596;10.042;2024-03-02T05:14:26;8.20;99.90
15638;DHT22;26604;53.596;10.042;2024-03-02T05:16:53;8.30;99.90
15638;DHT22;26604;53.596;10.042;2024-03-02T05:19:20;8.20;99.90
15638;DHT22;26604;53.596;10.042;2024-03-02T05:21:47;8.30;99.90
15638;DHT22;26604;53.596;10.042;2024-03-02T05:24:14;8.30;99.90
15638;DHT22;26604;53.596;10.042;2024-03-02T05:26:41;8.30;99.90
15638;DHT22;26604;53.596;10.042;2024-03-02T05:29:07;8.30;99.90
15638;DHT22;26604;53.596;10.042;2024-03-02T05:31:36;8.30;99.90
15638;DHT22;26604;53.596;10.042;2024-03-02T05:34:02;8.30;99.90
15638;DHT22;26604;53.596;10.042;2024-03-02T05:36:31;8.30;99.90
15638;DHT22;26604;53.596;10.042;2024-03-02T05:38:57;8.20;99.90
15638;DHT22;26604;53.596;10.042;2024-03-02T05:41:24;8.20;99.90
15638;DHT22;26604;53.596;10.042;2024-03-02T05:43:51;8.20;99.90
15638;DHT22;26604;53.596;10.042;2024-03-02T05:46:18;8.20;99.90
15638;DHT22;26604;53.596;10.042;2024-03-02T05:48:46;8.20;99.90
15638;DHT22;26604;53.596;10.042;2024-03-02T05:51:13;8.20;99.90
15638;DHT22;26604;53.596;10.042;2024-03-02T05:53:40;8.10;99.90
15638;DHT22;26604;53.596;10.042;2024-03-02T05:56:07;8.10;99.90
15638;DHT22;26604;53.596;10.042;2024-03-02T05:58:34;8.10;99.90
15638;DHT22;26604;53.596;10.042;2024-03-02T06:01:15;8.10;99.90
15638;DHT22;26604;53.596;10.042;2024-03-02T06:03:43;8.10;99.90
15638;DHT22;26604;53.596;10.042;2024-03-02T06:06:11;8.10;99.90
15638;DHT22;26604;53.596;10.042;2024-03-02T06:08:38;8.10;99.90
15638;DHT22;26604;53.596;10.042;2024-03-02T06:11:05;8.10;99.90
15638;DHT22;26604;53.596;10.042;2024-03-02T06:13:32;8.10;99.90
15638;DHT22;26604;53.596;10.042;2024-03-02T06:15:59;8.10;99.90
15638;DHT22;26604;53.596;10.042;2024-03-02T06:18:26;8.10;99.90
15638;DHT22;26604;53.596;10.042;2024-03-02T06:20:53;8.10;99.90
15638;DHT22;26604;53.596;10.042;2024-03-02T06:23:21;8.10;99.90
15638;DHT22;26604;53.596;10.042;2024-03-02T06:25:48;8.10;99.90
15638;DHT22;26604;53.596;10.042;2024-03-02T06:28:15;8.10;99.90
15638;DHT22;26604;53.596;10.042;2024-03-02T06:30:42;8.10;99.90
15638;DHT22;26604;53.596;10.042;2024-03-02T06:33:08;8.10;99.90
15638;DHT22;26604;53.596;10.042;2024-03-02T06:35:35;8.10;99.90
15638;DHT22;26604;53.596;10.042;2024-03-02T06:38:02;8.20;99.90
15638;DHT22;26604;53.596;10.042;2024-03-02T06:40:30;8.10;99.90
15638;DHT22;26604;53.596;10.042;2024-03-02T06:42:57;8.20;99.90
15638;DHT22;26604;53.596;10.042;2024-03-02T06:45:24;8.20;99.90
15638;DHT22;26604;53.596;10.042;2024-03-02T06:47:51;8.20;99.90
15638;DHT22;26604;53.596;10.042;2024-03-02T06:50:18;8.20;99.90
15638;DHT22;26604;53.596;10.042;2024-03-02T06:52:44;8.20;99.90
15638;DHT22;26604;53.596;10.042;2024-03-02T06:55:11;8.10;99.90
15638;DHT22;26604;53.596;10.042;2024-03-02T06:57:39;8.20;99.90
15638;DHT22;26604;53.596;10.042;2024-03-02T07:00:07;8.20;99.90
15638;DHT22;26604;53.596;10.042;2024-03-02T07:02:35;8.30;99.90
15638;DHT22;26604;53.596;10.042;2024-03-02T07:05:02;8.40;99.90
15638;DHT22;26604;53.596;10.042;2024-03-02T07:07:29;8.40;99.90
15638;DHT22;26604;53.596;10.042;2024-03-02T07:09:57;8.50;99.90
15638;DHT22;26604;53.596;10.042;2024-03-02T07:12:24;8.50;99.90
15638;DHT22;26604;53.596;10.042;2024-03-02T07:14:52;8.60;99.90
15638;DHT22;26604;53.596;10.042;2024-03-02T07:17:38;8.70;99.90
15638;DHT22;26604;53.596;10.042;2024-03-02T07:20:05;8.80;99.90
15638;DHT22;26604;53.596;10.042;2024-03-02T07:22:33;8.80;99.90
15638;DHT22;26604;53.596;10.042;2024-03-02T07:25:00;8.90;99.90
15638;DHT22;26604;53.596;10.042;2024-03-02T07:27:27;9.00;99.90
15638;DHT22;26604;53.596;10.042;2024-03-02T07:29:55;9.10;99.90
15638;DHT22;26604;53.596;10.042;2024-03-02T07:32:22;9.10;99.90
15638;DHT22;26604;53.596;10.042;2024-03-02T07:34:49;9.20;99.90
15638;DHT22;26604;53.596;10.042;2024-03-02T07:37:16;9.30;99.90
15638;DHT22;26604;53.596;10.042;2024-03-02T07:39:44;9.40;99.90
15638;DHT22;26604;53.596;10.042;2024-03-02T07:42:11;9.50;99.90
15638;DHT22;26604;53.596;10.042;2024-03-02T07:44:38;9.50;99.90
15638;DHT22;26604;53.596;10.042;2024-03-02T07:47:07;9.70;99.90
15638;DHT22;26604;53.596;10.042;2024-03-02T07:49:33;9.80;99.90
15638;DHT22;26604;53.596;10.042;2024-03-02T07:52:01;9.80;99.90
15638;DHT22;26604;53.596;10.042;2024-03-02T07:54:28;9.80;99.90
15638;DHT22;26604;53.596;10.042;2024-03-02T07:56:55;9.90;99.90
15638;DHT22;26604;53.596;10.042;2024-03-02T07:59:22;9.90;99.90
15638;DHT22;26604;53.596;10.042;2024-03-02T08:01:49;10.00;99.90
15638;DHT22;26604;53.596;10.042;2024-03-02T08:04:18;10.00;99.90
15638;DHT22;26604;53.596;10.042;2024-03-02T08:06:45;10.10;99.90
15638;DHT22;26604;53.596;10.042;2024-03-02T08:09:12;10.20;99.90
15638;DHT22;26604;53.596;10.042;2024-03-02T08:11:39;10.20;99.90
15638;DHT22;26604;53.596;10.042;2024-03-02T08:14:06;10.20;99.90
15638;DHT22;26604;53.596;10.042;2024-03-02T08:16:33;10.30;99.90
15638;DHT22;26604;53.596;10.042;2024-03-02T08:19:00;10.40;99.90
15638;DHT22;26604;53.596;10.042;2024-03-02T08:21:28;10.40;99.90
15638;DHT22;26604;53.596;10.042;2024-03-02T08:23:56;10.50;99.90
15638;DHT22;26604;53.596;10.042;2024-03-02T08:26:23;10.50;99.90
15638;DHT22;26604;53.596;10.042;2024-03-02T08:28:50;10.50;99.90
15638;DHT22;26604;53.596;10.042;2024-03-02T08:31:17;10.60;99.90
15638;DHT22;26604;53.596;10.042;2024-03-02T08:33:44;10.60;99.90
15638;DHT22;26604;53.596;10.042;2024-03-02T08:36:11;10.70;99.90
15638;DHT22;26604;53.596;10.042;2024-03-02T08:38:39;10.70;99.90
15638;DHT22;26604;53.596;10.042;2024-03-02T08:41:07;10.80;99.90
15638;DHT22;26604;53.596;10.042;2024-03-02T08:43:34;10.80;99.90
15638;DHT22;26604;53.596;10.042;2024-03-02T08:46:01;10.80;99.90
15638;DHT22;26604;53.596;10.042;2024-03-02T08:48:28;10.90;99.90
15638;DHT22;26604;53.596;10.042;2024-03-02T08:50:54;11.00;99.90
15638;DHT22;26604;53.596;10.042;2024-03-02T08:53:20;11.00;99.90
15638;DHT22;26604;53.596;10.042;2024-03-02T08:55:49;11.10;99.90
15638;DHT22;26604;53.596;10.042;2024-03-02T08:58:16;11.20;99.90
15638;DHT22;26604;53.596;10.042;2024-03-02T09:00:42;11.30;99.90
15638;DHT22;26604;53.596;10.042;2024-03-02T09:03:09;11.40;99.90
15638;DHT22;26604;53.596;10.042;2024-03-02T09:05:36;11.50;99.90
15638;DHT22;26604;53.596;10.042;2024-03-02T09:08:04;11.60;99.90
15638;DHT22;26604;53.596;10.042;2024-03-02T09:10:31;11.70;99.90
15638;DHT22;26604;53.596;10.042;2024-03-02T09:12:59;11.70;99.90
15638;DHT22;26604;53.596;10.042;2024-03-02T09:15:26;11.70;99.90
15638;DHT22;26604;53.596;10.042;2024-03-02T09:17:53;11.80;99.90
15638;DHT22;26604;53.596;10.042;2024-03-02T09:20:20;11.90;99.90
15638;DHT22;26604;53.596;10.042;2024-03-02T09:22:47;12.00;99.90
15638;DHT22;26604;53.596;10.042;2024-03-02T09:25:14;12.00;99.90
15638;DHT22;26604;53.596;10.042;2024-03-02T09:27:41;12.10;99.90
15638;DHT22;26604;53.596;10.042;2024-03-02T09:30:10;12.20;99.90
15638;DHT22;26604;53.596;10.042;2024-03-02T09:32:39;12.40;99.90
15638;DHT22;26604;53.596;10.042;2024-03-02T09:35:07;12.40;99.90
15638;DHT22;26604;53.596;10.042;2024-03-02T09:37:34;12.50;99.90
15638;DHT22;26604;53.596;10.042;2024-03-02T09:40:01;12.50;99.90
15638;DHT22;26604;53.596;10.042;2024-03-02T09:42:28;12.50;99.90
15638;DHT22;26604;53.596;10.042;2024-03-02T09:44:57;12.60;99.90
15638;DHT22;26604;53.596;10.042;2024-03-02T09:47:25;12.60;99.90
15638;DHT22;26604;53.596;10.042;2024-03-02T09:49:52;12.60;99.90
15638;DHT22;26604;53.596;10.042;2024-03-02T09:52:19;12.60;99.90
15638;DHT22;26604;53.596;10.042;2024-03-02T09:54:47;12.70;99.90
15638;DHT22;26604;53.596;10.042;2024-03-02T09:57:14;12.80;99.90
15638;DHT22;26604;53.596;10.042;2024-03-02T09:59:42;12.70;99.90
15638;DHT22;26604;53.596;10.042;2024-03-02T10:02:10;12.80;99.90
15638;DHT22;26604;53.596;10.042;2024-03-02T10:04:39;12.80;99.90
15638;DHT22;26604;53.596;10.042;2024-03-02T10:07:13;12.90;99.90
15638;DHT22;26604;53.596;10.042;2024-03-02T10:09:40;12.80;99.90
15638;DHT22;26604;53.596;10.042;2024-03-02T10:12:08;12.80;99.90
15638;DHT22;26604;53.596;10.042;2024-03-02T10:14:35;12.80;99.90
15638;DHT22;26604;53.596;10.042;2024-03-02T10:17:03;12.80;99.90
15638;DHT22;26604;53.596;10.042;2024-03-02T10:19:30;12.80;99.90
15638;DHT22;26604;53.596;10.042;2024-03-02T10:22:00;12.70;99.90
15638;DHT22;26604;53.596;10.042;2024-03-02T10:24:34;12.80;99.90
15638;DHT22;26604;53.596;10.042;2024-03-02T10:27:02;12.90;99.90
15638;DHT22;26604;53.596;10.042;2024-03-02T10:29:34;12.90;99.90
15638;DHT22;26604;53.596;10.042;2024-03-02T10:32:03;13.00;99.90
15638;DHT22;26604;53.596;10.042;2024-03-02T10:34:31;13.10;99.90
15638;DHT22;26604;53.596;10.042;2024-03-02T10:36:59;13.20;99.90
15638;DHT22;26604;53.596;10.042;2024-03-02T10:39:27;13.30;99.90
15638;DHT22;26604;53.596;10.042;2024-03-02T10:41:55;13.30;99.90
15638;DHT22;26604;53.596;10.042;2024-03-02T10:44:23;13.40;99.90
15638;DHT22;26604;53.596;10.042;2024-03-02T10:46:50;13.40;99.90
15638;DHT22;26604;53.596;10.042;2024-03-02T10:49:20;13.40;99.90
15638;DHT22;26604;53.596;10.042;2024-03-02T10:51:49;13.50;99.90
15638;DHT22;26604;53.596;10.042;2024-03-02T10:54:17;13.60;99.90
15638;DHT22;26604;53.596;10.042;2024-03-02T10:56:52;13.60;99.90
15638;DHT22;26604;53.596;10.042;2024-03-02T10:59:26;13.70;99.90
15638;DHT22;26604;53.596;10.042;2024-03-02T11:01:56;13.90;99.90
15638;DHT22;26604;53.596;10.042;2024-03-02T11:04:24;14.10;99.90
15638;DHT22;26604;53.596;10.042;2024-03-02T11:06:52;14.20;99.90
15638;DHT22;26604;53.596;10.042;2024-03-02T11:09:21;14.40;99.90
15638;DHT22;26604;53.596;10.042;2024-03-02T11:12:02;14.60;99.90
15638;DHT22;26604;53.596;10.042;2024-03-02T11:14:31;14.70;99.90
15638;DHT22;26604;53.596;10.042;2024-03-02T11:17:01;14.80;99.90
15638;DHT22;26604;53.596;10.042;2024-03-02T11:19:29;14.80;99.90
15638;DHT22;26604;53.596;10.042;2024-03-02T11:21:57;14.90;99.90
15638;DHT22;26604;53.596;10.042;2024-03-02T11:24:32;14.80;99.90
15638;DHT22;26604;53.596;10.042;2024-03-02T11:26:59;14.80;99.90
15638;DHT22;26604;53.596;10.042;2024-03-02T11:29:46;14.90;99.90
15638;DHT22;26604;53.596;10.042;2024-03-02T11:32:20;14.90;99.90
15638;DHT22;26604;53.596;10.042;2024-03-02T11:34:48;14.90;99.90
15638;DHT22;26604;53.596;10.042;2024-03-02T11:37:17;15.00;99.90
15638;DHT22;26604;53.596;10.042;2024-03-02T11:39:46;15.00;99.90
15638;DHT22;26604;53.596;10.042;2024-03-02T11:42:13;15.00;99.90
15638;DHT22;26604;53.596;10.042;2024-03-02T11:44:43;15.20;99.90
15638;DHT22;26604;53.596;10.042;2024-03-02T11:47:12;15.20;99.90
15638;DHT22;26604;53.596;10.042;2024-03-02T11:49:43;15.30;99.90
15638;DHT22;26604;53.596;10.042;2024-03-02T11:52:12;15.30;99.90
15638;DHT22;26604;53.596;10.042;2024-03-02T11:54:42;15.30;99.90
15638;DHT22;26604;53.596;10.042;2024-03-02T11:57:14;15.40;99.90
15638;DHT22;26604;53.596;10.042;2024-03-02T11:59:41;15.40;99.90
15638;DHT22;26604;53.596;10.042;2024-03-02T12:02:15;15.50;99.90
15638;DHT22;26604;53.596;10.042;2024-03-02T12:04:43;15.50;99.90
15638;DHT22;26604;53.596;10.042;2024-03-02T12:07:11;15.50;99.90
15638;DHT22;26604;53.596;10.042;2024-03-02T12:09:38;15.50;99.90
15638;DHT22;26604;53.596;10.042;2024-03-02T12:12:06;15.50;99.90
15638;DHT22;26604;53.596;10.042;2024-03-02T12:14:35;15.50;99.90
15638;DHT22;26604;53.596;10.042;2024-03-02T12:17:04;15.60;99.90
15638;DHT22;26604;53.596;10.042;2024-03-02T12:19:32;15.60;99.90
15638;DHT22;26604;53.596;10.042;2024-03-02T12:21:59;15.60;99.90
15638;DHT22;26604;53.596;10.042;2024-03-02T12:24:28;15.50;99.90
15638;DHT22;26604;53.596;10.042;2024-03-02T12:26:55;15.60;99.90
15638;DHT22;26604;53.596;10.042;2024-03-02T12:29:23;15.70;99.90
15638;DHT22;26604;53.596;10.042;2024-03-02T12:31:52;15.70;99.90
15638;DHT22;26604;53.596;10.042;2024-03-02T12:34:19;15.70;99.90
15638;DHT22;26604;53.596;10.042;2024-03-02T12:36:47;15.70;99.90
15638;DHT22;26604;53.596;10.042;2024-03-02T12:39:16;15.90;99.90
15638;DHT22;26604;53.596;10.042;2024-03-02T12:41:43;15.90;99.90
15638;DHT22;26604;53.596;10.042;2024-03-02T12:44:10;16.00;99.90
15638;DHT22;26604;53.596;10.042;2024-03-02T12:46:37;16.00;99.90
15638;DHT22;26604;53.596;10.042;2024-03-02T12:49:10;16.10;99.90
15638;DHT22;26604;53.596;10.042;2024-03-02T12:51:38;16.10;99.90
15638;DHT22;26604;53.596;10.042;2024-03-02T12:54:06;16.10;99.90
15638;DHT22;26604;53.596;10.042;2024-03-02T12:56:33;16.10;99.90
15638;DHT22;26604;53.596;10.042;2024-03-02T12:59:01;16.10;99.90
15638;DHT22;26604;53.596;10.042;2024-03-02T13:01:28;16.10;99.90
15638;DHT22;26604;53.596;10.042;2024-03-02T13:03:55;16.10;99.90
15638;DHT22;26604;53.596;10.042;2024-03-02T13:06:24;16.10;99.90
15638;DHT22;26604;53.596;10.042;2024-03-02T13:08:53;16.00;99.90
15638;DHT22;26604;53.596;10.042;2024-03-02T13:11:21;16.10;99.90
15638;DHT22;26604;53.596;10.042;2024-03-02T13:13:48;16.10;99.90
15638;DHT22;26604;53.596;10.042;2024-03-02T13:16:15;16.10;99.90
15638;DHT22;26604;53.596;10.042;2024-03-02T13:18:45;16.10;99.90
15638;DHT22;26604;53.596;10.042;2024-03-02T13:21:11;16.10;99.90
15638;DHT22;26604;53.596;10.042;2024-03-02T13:23:40;16.10;99.90
15638;DHT22;26604;53.596;10.042;2024-03-02T13:26:06;16.10;99.90
15638;DHT22;26604;53.596;10.042;2024-03-02T13:28:36;16.10;99.90
15638;DHT22;26604;53.596;10.042;2024-03-02T13:31:03;16.10;99.90
15638;DHT22;26604;53.596;10.042;2024-03-02T13:33:30;16.00;99.90
15638;DHT22;26604;53.596;10.042;2024-03-02T13:35:58;16.00;99.90
15638;DHT22;26604;53.596;10.042;2024-03-02T13:38:25;16.00;99.90
15638;DHT22;26604;53.596;10.042;2024-03-02T13:40:53;16.00;99.90
15638;DHT22;26604;53.596;10.042;2024-03-02T13:43:20;16.00;99.90
15638;DHT22;26604;53.596;10.042;2024-03-02T13:45:49;15.90;99.90
15638;DHT22;26604;53.596;10.042;2024-03-02T13:48:17;15.90;99.90
15638;DHT22;26604;53.596;10.042;2024-03-02T13:50:43;15.80;99.90
15638;DHT22;26604;53.596;10.042;2024-03-02T13:53:11;15.80;99.90
15638;DHT22;26604;53.596;10.042;2024-03-02T13:55:37;15.80;99.90
15638;DHT22;26604;53.596;10.042;2024-03-02T13:58:06;15.80;99.90
15638;DHT22;26604;53.596;10.042;2024-03-02T14:00:33;15.80;99.90
15638;DHT22;26604;53.596;10.042;2024-03-02T14:03:00;15.90;99.90
15638;DHT22;26604;53.596;10.042;2024-03-02T14:05:29;16.00;99.90
15638;DHT22;26604;53.596;10.042;2024-03-02T14:07:55;16.10;99.90
15638;DHT22;26604;53.596;10.042;2024-03-02T14:10:22;16.10;99.90
15638;DHT22;26604;53.596;10.042;2024-03-02T14:12:49;16.20;99.90
15638;DHT22;26604;53.596;10.042;2024-03-02T14:15:17;16.30;99.90
15638;DHT22;26604;53.596;10.042;2024-03-02T14:17:44;16.40;99.90
15638;DHT22;26604;53.596;10.042;2024-03-02T14:20:11;16.50;99.90
15638;DHT22;26604;53.596;10.042;2024-03-02T14:22:39;16.50;99.90
15638;DHT22;26604;53.596;10.042;2024-03-02T14:25:06;16.60;99.90
15638;DHT22;26604;53.596;10.042;2024-03-02T14:27:33;16.60;99.90
15638;DHT22;26604;53.596;10.042;2024-03-02T14:30:01;16.60;99.90
15638;DHT22;26604;53.596;10.042;2024-03-02T14:32:29;16.60;99.90
15638;DHT22;26604;53.596;10.042;2024-03-02T14:34:56;16.40;99.90
15638;DHT22;26604;53.596;10.042;2024-03-02T14:37:23;16.30;99.90
15638;DHT22;26604;53.596;10.042;2024-03-02T14:39:50;16.20;99.90
15638;DHT22;26604;53.596;10.042;2024-03-02T14:42:17;16.10;99.90
15638;DHT22;26604;53.596;10.042;2024-03-02T14:44:44;16.00;99.90
15638;DHT22;26604;53.596;10.042;2024-03-02T14:47:10;15.90;99.90
15638;DHT22;26604;53.596;10.042;2024-03-02T14:49:39;15.80;99.90
15638;DHT22;26604;53.596;10.042;2024-03-02T14:52:07;15.70;99.90
15638;DHT22;26604;53.596;10.042;2024-03-02T14:54:34;15.50;99.90
15638;DHT22;26604;53.596;10.042;2024-03-02T14:57:01;15.40;99.90
15638;DHT22;26604;53.596;10.042;2024-03-02T14:59:29;15.30;99.90
15638;DHT22;26604;53.596;10.042;2024-03-02T15:01:56;15.10;99.90
15638;DHT22;26604;53.596;10.042;2024-03-02T15:04:23;14.90;99.90
15638;DHT22;26604;53.596;10.042;2024-03-02T15:06:51;14.80;99.90
15638;DHT22;26604;53.596;10.042;2024-03-02T15:09:18;14.70;99.90
15638;DHT22;26604;53.596;10.042;2024-03-02T15:11:45;14.60;99.90
15638;DHT22;26604;53.596;10.042;2024-03-02T15:14:12;14.40;99.90
15638;DHT22;26604;53.596;10.042;2024-03-02T15:16:40;14.30;99.90
15638;DHT22;26604;53.596;10.042;2024-03-02T15:19:07;14.20;99.90
15638;DHT22;26604;53.596;10.042;2024-03-02T15:21:34;14.10;99.90
15638;DHT22;26604;53.596;10.042;2024-03-02T15:24:03;14.00;99.90
15638;DHT22;26604;53.596;10.042;2024-03-02T15:26:30;13.90;99.90